Ana Sayfa
METAR-TAF:

METAR-TAF

Havaalanları :

Şanghay Pudong Uluslararası Havalimanı

Şanghay-Pudong, Çin

Enlem: 31-07N, Boylam: 121-46E, yükseklik: 4 m

Güncel hava durumu gözlemi

Rapor saat 06:30 UTC de 20 dakika önce yapıldı.
Rüzgar güney/güneydoğudan 10 kt, doğu/güneydoğu ve güney arasında değişken
Sıcaklık 20°C
Nem 46%
Basınç 1020 hPa
Görüş mesafesi 10 km veya daha fazla
1500 m altında bulut yok ve kümülonimbus yok

METAR: ZSPD 260630Z 15005MPS 120V180 CAVOK 20/08 Q1020 NOSIG

Saat: 14:50 (06:50 UTC)

Tahmin

Rapor saat 03:25 UTC de 3 saat ve 25 dakika önce yapıldı.
Ayın 26'si saat 06 UTC'den ayın 27'si saat 06 UTC'ye kadar geçerli Tahmin
Rüzgar güneybatıdan 8 kt
Görüş mesafesi: 5000 m
2000 ft yükseklikte parçalı bulutlu
Pus

TAF: ZSPD 260325Z 2606/2706 22004MPS 5000 BR SCT020 TX21/2606Z TN08/2621Z

4.000'den fazla havaalanı için hava durumu gözlemleri ve tahminleri (METAR ve TAF raporları).

Kullanılabilir istasyonlar harita üzerinde sarı ve kırmızı noktalarla gösterilir.

İstasyonun adını görmek için fareyi noktanın üzerinde gezdirin.

Sonrasında hava gözlem ve tahminlerini görmek için tıklayın.

Haritayı değiştirmek için: yaklaştırmak için siyah artı işaretli yeşil düğmeye ve uzaklaştırmak için de eksi işaretli düğmeye hızla tıklayın; bitişik haritalar için yeşil okları kullanın.


METAR-TAF: